ETNL/RLG METAR and TAF weather

Enter ICAO airport designator
Station Type Date Time Source
ETNL METAR 2019/10/16 19:25 UTC NOAA

ETNL 161925Z 24006KT 9999 FEW030 11/10 Q1009 BLU+FCST CANCEL


Station Type Date Time Source
ETNL Decoded METAR 2019/10/16 19:25 UTC NOAA

Laage, Germany (ETNL) 53-55N 012-17E 46M
Oct 16, 2019 - 03:25 PM EDT / 2019.10.16 1925 UTC
Wind: from the WSW (240 degrees) at 7 MPH (6 KT):0
Visibility: greater than 7 mile(s):0
Sky conditions: mostly clear
Temperature: 51 F (11 C)
Dew Point: 50 F (10 C)
Relative Humidity: 93%
Pressure (altimeter): 29.80 in. Hg (1009 hPa)
ob: ETNL 161925Z 24006KT 9999 FEW030 11/10 Q1009 BLU+FCST CANCEL
cycle: 19

Station Type Date Time Source
ETNL TAF 2019/06/10 05:34 UTC NOAA

TAF ETNL 100400Z 1005/1018 06008KT 9999 NSW BKN100
TEMPO 1005/1018 07012KT 6000 -RA BKN050 OVC100 PROB30 1015/1018 VRB15G30KT 3000 TSRA BKN030CB BY ETGL

Example: see airport list